sensor_id;sensor_type;location;lat;lon;timestamp;pressure;altitude;pressure_sealevel;temperature;humidity
34328;BME280;20588;48.840;10.064;2022-11-15T00:01:59;96310.72;;;10.28;nan
34328;BME280;20588;48.840;10.064;2022-11-15T00:04:25;96304.06;;;10.20;nan
34328;BME280;20588;48.840;10.064;2022-11-15T00:06:51;96306.31;;;10.10;nan
34328;BME280;20588;48.840;10.064;2022-11-15T00:09:17;96310.13;;;10.01;nan
34328;BME280;20588;48.840;10.064;2022-11-15T00:11:43;96299.53;;;9.91;nan
34328;BME280;20588;48.840;10.064;2022-11-15T00:14:09;96302.56;;;9.82;nan
34328;BME280;20588;48.840;10.064;2022-11-15T00:16:35;96297.31;;;9.77;nan
34328;BME280;20588;48.840;10.064;2022-11-15T00:19:01;96304.25;;;9.70;nan
34328;BME280;20588;48.840;10.064;2022-11-15T00:21:27;96296.97;;;9.67;nan
34328;BME280;20588;48.840;10.064;2022-11-15T00:23:53;96294.81;;;9.64;nan
34328;BME280;20588;48.840;10.064;2022-11-15T00:26:20;96295.25;;;9.61;nan
34328;BME280;20588;48.840;10.064;2022-11-15T00:28:46;96295.88;;;9.56;nan
34328;BME280;20588;48.840;10.064;2022-11-15T00:31:13;96289.16;;;9.55;nan
34328;BME280;20588;48.840;10.064;2022-11-15T00:33:39;96292.91;;;9.53;nan
34328;BME280;20588;48.840;10.064;2022-11-15T00:36:09;96296.69;;;9.50;nan
34328;BME280;20588;48.840;10.064;2022-11-15T00:38:38;96293.34;;;9.50;nan
34328;BME280;20588;48.840;10.064;2022-11-15T00:41:06;96285.06;;;9.48;nan
34328;BME280;20588;48.840;10.064;2022-11-15T00:43:32;96278.13;;;9.48;nan
34328;BME280;20588;48.840;10.064;2022-11-15T00:45:59;96281.06;;;9.52;nan
34328;BME280;20588;48.840;10.064;2022-11-15T00:48:25;96284.81;;;9.56;nan
34328;BME280;20588;48.840;10.064;2022-11-15T00:50:51;96282.59;;;9.59;nan
34328;BME280;20588;48.840;10.064;2022-11-15T00:53:18;96272.13;;;9.61;nan
34328;BME280;20588;48.840;10.064;2022-11-15T00:55:44;96274.13;;;9.59;nan
34328;BME280;20588;48.840;10.064;2022-11-15T00:58:10;96271.41;;;9.54;nan
34328;BME280;20588;48.840;10.064;2022-11-15T01:00:36;96266.09;;;9.49;nan
34328;BME280;20588;48.840;10.064;2022-11-15T01:03:02;96263.56;;;9.42;nan
34328;BME280;20588;48.840;10.064;2022-11-15T01:05:28;96259.63;;;9.40;nan
34328;BME280;20588;48.840;10.064;2022-11-15T01:07:55;96251.00;;;9.34;nan
34328;BME280;20588;48.840;10.064;2022-11-15T01:10:22;96248.63;;;9.33;nan
34328;BME280;20588;48.840;10.064;2022-11-15T01:12:49;96246.28;;;9.31;nan
34328;BME280;20588;48.840;10.064;2022-11-15T01:15:15;96250.03;;;9.29;nan
34328;BME280;20588;48.840;10.064;2022-11-15T01:17:42;96253.81;;;9.26;nan
34328;BME280;20588;48.840;10.064;2022-11-15T01:20:08;96246.91;;;9.27;nan
34328;BME280;20588;48.840;10.064;2022-11-15T01:22:35;96247.13;;;9.25;nan
34328;BME280;20588;48.840;10.064;2022-11-15T01:25:01;96250.84;;;9.23;nan
34328;BME280;20588;48.840;10.064;2022-11-15T01:27:27;96246.72;;;9.22;nan
34328;BME280;20588;48.840;10.064;2022-11-15T01:29:53;96242.38;;;9.22;nan
34328;BME280;20588;48.840;10.064;2022-11-15T01:32:19;96244.78;;;9.17;nan
34328;BME280;20588;48.840;10.064;2022-11-15T01:34:45;96238.50;;;9.13;nan
34328;BME280;20588;48.840;10.064;2022-11-15T01:37:11;96246.63;;;9.10;nan
34328;BME280;20588;48.840;10.064;2022-11-15T01:39:38;96241.91;;;9.07;nan
34328;BME280;20588;48.840;10.064;2022-11-15T01:42:04;96239.34;;;9.07;nan
34328;BME280;20588;48.840;10.064;2022-11-15T01:44:42;96229.84;;;9.07;nan
34328;BME280;20588;48.840;10.064;2022-11-15T01:47:22;96233.41;;;9.06;nan
34328;BME280;20588;48.840;10.064;2022-11-15T01:50:02;96230.25;;;9.04;nan
34328;BME280;20588;48.840;10.064;2022-11-15T01:52:32;96228.69;;;9.03;nan
34328;BME280;20588;48.840;10.064;2022-11-15T01:55:34;96226.53;;;9.00;nan
34328;BME280;20588;48.840;10.064;2022-11-15T01:58:03;96224.19;;;8.99;nan
34328;BME280;20588;48.840;10.064;2022-11-15T02:00:31;96223.38;;;8.98;nan
34328;BME280;20588;48.840;10.064;2022-11-15T02:02:57;96215.69;;;8.98;nan
34328;BME280;20588;48.840;10.064;2022-11-15T02:05:23;96218.66;;;8.95;nan
34328;BME280;20588;48.840;10.064;2022-11-15T02:07:50;96218.66;;;8.95;nan
34328;BME280;20588;48.840;10.064;2022-11-15T02:10:24;96209.41;;;8.94;nan
34328;BME280;20588;48.840;10.064;2022-11-15T02:12:51;96210.59;;;8.92;nan
34328;BME280;20588;48.840;10.064;2022-11-15T02:15:18;96211.44;;;8.86;nan
34328;BME280;20588;48.840;10.064;2022-11-15T02:18:09;96212.81;;;8.82;nan
34328;BME280;20588;48.840;10.064;2022-11-15T02:23:50;96205.22;;;8.69;nan
34328;BME280;20588;48.840;10.064;2022-11-15T02:29:05;96201.13;;;8.55;nan
34328;BME280;20588;48.840;10.064;2022-11-15T02:34:35;96189.75;;;8.38;nan
34328;BME280;20588;48.840;10.064;2022-11-15T02:42:42;96181.97;;;8.13;nan
34328;BME280;20588;48.840;10.064;2022-11-15T02:45:37;96181.19;;;8.06;nan
34328;BME280;20588;48.840;10.064;2022-11-15T02:48:06;96183.00;;;7.99;nan
34328;BME280;20588;48.840;10.064;2022-11-15T02:50:33;96181.81;;;7.95;nan
34328;BME280;20588;48.840;10.064;2022-11-15T02:53:00;96178.88;;;7.92;nan
34328;BME280;20588;48.840;10.064;2022-11-15T02:55:32;96181.03;;;7.88;nan
34328;BME280;20588;48.840;10.064;2022-11-15T03:03:35;96177.72;;;7.68;nan
34328;BME280;20588;48.840;10.064;2022-11-15T03:09:09;96170.88;;;7.43;nan
34328;BME280;20588;48.840;10.064;2022-11-15T03:11:43;96171.69;;;7.36;nan
34328;BME280;20588;48.840;10.064;2022-11-15T03:14:25;96167.56;;;7.29;nan
34328;BME280;20588;48.840;10.064;2022-11-15T03:17:28;96169.13;;;7.23;nan
34328;BME280;20588;48.840;10.064;2022-11-15T03:19:58;96168.34;;;7.16;nan
34328;BME280;20588;48.840;10.064;2022-11-15T03:22:28;96172.88;;;7.08;nan
34328;BME280;20588;48.840;10.064;2022-11-15T03:24:59;96171.28;;;7.00;nan
34328;BME280;20588;48.840;10.064;2022-11-15T03:27:31;96168.16;;;6.92;nan
34328;BME280;20588;48.840;10.064;2022-11-15T03:30:03;96164.59;;;6.86;nan
34328;BME280;20588;48.840;10.064;2022-11-15T03:32:31;96161.06;;;6.81;nan
34328;BME280;20588;48.840;10.064;2022-11-15T03:35:12;96155.16;;;6.87;nan
34328;BME280;20588;48.840;10.064;2022-11-15T03:38:25;96158.50;;;6.94;nan
34328;BME280;20588;48.840;10.064;2022-11-15T03:41:05;96162.81;;;7.00;nan
34328;BME280;20588;48.840;10.064;2022-11-15T03:43:37;96162.03;;;7.06;nan
34328;BME280;20588;48.840;10.064;2022-11-15T03:46:16;96156.34;;;7.10;nan
34328;BME280;20588;48.840;10.064;2022-11-15T03:48:50;96163.81;;;7.12;nan
34328;BME280;20588;48.840;10.064;2022-11-15T03:51:18;96153.19;;;7.15;nan
34328;BME280;20588;48.840;10.064;2022-11-15T03:53:46;96158.50;;;7.20;nan
34328;BME280;20588;48.840;10.064;2022-11-15T03:56:12;96158.09;;;7.23;nan
34328;BME280;20588;48.840;10.064;2022-11-15T03:58:38;96154.94;;;7.21;nan
34328;BME280;20588;48.840;10.064;2022-11-15T04:01:04;96153.38;;;7.13;nan
34328;BME280;20588;48.840;10.064;2022-11-15T04:03:30;96144.13;;;7.12;nan
34328;BME280;20588;48.840;10.064;2022-11-15T04:05:56;96152.22;;;7.09;nan
34328;BME280;20588;48.840;10.064;2022-11-15T04:08:22;96145.72;;;7.07;nan
34328;BME280;20588;48.840;10.064;2022-11-15T04:10:51;96143.16;;;7.07;nan
34328;BME280;20588;48.840;10.064;2022-11-15T04:13:17;96144.72;;;7.01;nan
34328;BME280;20588;48.840;10.064;2022-11-15T04:15:43;96146.72;;;6.99;nan
34328;BME280;20588;48.840;10.064;2022-11-15T04:18:09;96139.03;;;6.93;nan
34328;BME280;20588;48.840;10.064;2022-11-15T04:20:35;96139.81;;;6.87;nan
34328;BME280;20588;48.840;10.064;2022-11-15T04:23:22;96138.03;;;6.74;nan
34328;BME280;20588;48.840;10.064;2022-11-15T04:26:12;96142.34;;;6.61;nan
34328;BME280;20588;48.840;10.064;2022-11-15T04:28:40;96141.75;;;6.52;nan
34328;BME280;20588;48.840;10.064;2022-11-15T04:31:26;96141.13;;;6.37;nan
34328;BME280;20588;48.840;10.064;2022-11-15T04:33:53;96144.22;;;6.26;nan
34328;BME280;20588;48.840;10.064;2022-11-15T04:36:20;96145.56;;;6.16;nan
34328;BME280;20588;48.840;10.064;2022-11-15T04:39:04;96136.91;;;6.10;nan
34328;BME280;20588;48.840;10.064;2022-11-15T04:41:31;96131.38;;;6.07;nan
34328;BME280;20588;48.840;10.064;2022-11-15T04:43:57;96131.97;;;6.02;nan
34328;BME280;20588;48.840;10.064;2022-11-15T04:46:24;96126.44;;;5.99;nan
34328;BME280;20588;48.840;10.064;2022-11-15T04:48:51;96125.88;;;5.97;nan
34328;BME280;20588;48.840;10.064;2022-11-15T04:51:17;96122.94;;;6.00;nan
34328;BME280;20588;48.840;10.064;2022-11-15T04:53:43;96123.31;;;5.97;nan
34328;BME280;20588;48.840;10.064;2022-11-15T04:56:10;96125.47;;;6.00;nan
34328;BME280;20588;48.840;10.064;2022-11-15T04:58:36;96113.09;;;5.97;nan
34328;BME280;20588;48.840;10.064;2022-11-15T05:01:13;96112.72;;;6.00;nan
34328;BME280;20588;48.840;10.064;2022-11-15T05:03:43;96111.19;;;6.12;nan
34328;BME280;20588;48.840;10.064;2022-11-15T05:06:32;96105.09;;;6.26;nan
34328;BME280;20588;48.840;10.064;2022-11-15T05:08:58;96104.59;;;6.63;nan
34328;BME280;20588;48.840;10.064;2022-11-15T05:11:25;96107.38;;;6.68;nan
34328;BME280;20588;48.840;10.064;2022-11-15T05:13:52;96101.66;;;6.79;nan
34328;BME280;20588;48.840;10.064;2022-11-15T05:16:19;96110.69;;;6.88;nan
34328;BME280;20588;48.840;10.064;2022-11-15T05:18:45;96103.03;;;6.94;nan
34328;BME280;20588;48.840;10.064;2022-11-15T05:21:13;96104.41;;;6.97;nan
34328;BME280;20588;48.840;10.064;2022-11-15T05:23:40;96108.75;;;6.96;nan
34328;BME280;20588;48.840;10.064;2022-11-15T05:26:08;96110.72;;;7.01;nan
34328;BME280;20588;48.840;10.064;2022-11-15T05:28:35;96098.09;;;7.06;nan
34328;BME280;20588;48.840;10.064;2022-11-15T05:31:22;96093.38;;;7.09;nan
34328;BME280;20588;48.840;10.064;2022-11-15T05:33:49;96094.94;;;7.10;nan
34328;BME280;20588;48.840;10.064;2022-11-15T05:36:37;96102.81;;;7.09;nan
34328;BME280;20588;48.840;10.064;2022-11-15T05:39:05;96094.94;;;7.10;nan
34328;BME280;20588;48.840;10.064;2022-11-15T05:41:48;96085.09;;;7.14;nan
34328;BME280;20588;48.840;10.064;2022-11-15T05:44:18;96095.34;;;7.14;nan
34328;BME280;20588;48.840;10.064;2022-11-15T05:46:46;96088.47;;;7.14;nan
34328;BME280;20588;48.840;10.064;2022-11-15T05:49:16;96085.31;;;7.19;nan
34328;BME280;20588;48.840;10.064;2022-11-15T05:51:45;96078.03;;;7.16;nan
34328;BME280;20588;48.840;10.064;2022-11-15T05:54:13;96086.06;;;7.19;nan
34328;BME280;20588;48.840;10.064;2022-11-15T05:56:39;96080.19;;;7.19;nan
34328;BME280;20588;48.840;10.064;2022-11-15T05:59:06;96076.44;;;7.21;nan
34328;BME280;20588;48.840;10.064;2022-11-15T06:01:33;96074.66;;;7.22;nan
34328;BME280;20588;48.840;10.064;2022-11-15T06:03:59;96079.94;;;7.27;nan
34328;BME280;20588;48.840;10.064;2022-11-15T06:06:27;96081.16;;;7.31;nan
34328;BME280;20588;48.840;10.064;2022-11-15T06:08:53;96083.72;;;7.31;nan
34328;BME280;20588;48.840;10.064;2022-11-15T06:11:19;96087.81;;;7.38;nan
34328;BME280;20588;48.840;10.064;2022-11-15T06:13:45;96077.59;;;7.38;nan
34328;BME280;20588;48.840;10.064;2022-11-15T06:16:11;96079.13;;;7.53;nan
34328;BME280;20588;48.840;10.064;2022-11-15T06:18:38;96077.19;;;7.48;nan
34328;BME280;20588;48.840;10.064;2022-11-15T06:21:05;96090.38;;;7.45;nan
34328;BME280;20588;48.840;10.064;2022-11-15T06:23:35;96084.47;;;7.38;nan
34328;BME280;20588;48.840;10.064;2022-11-15T06:26:02;96095.69;;;7.37;nan
34328;BME280;20588;48.840;10.064;2022-11-15T06:28:30;96095.31;;;7.33;nan
34328;BME280;20588;48.840;10.064;2022-11-15T06:31:01;96094.34;;;7.34;nan
34328;BME280;20588;48.840;10.064;2022-11-15T06:33:27;96098.25;;;7.30;nan
34328;BME280;20588;48.840;10.064;2022-11-15T06:35:53;96100.03;;;7.30;nan
34328;BME280;20588;48.840;10.064;2022-11-15T06:38:19;96097.88;;;7.27;nan
34328;BME280;20588;48.840;10.064;2022-11-15T06:40:45;96104.19;;;7.31;nan
34328;BME280;20588;48.840;10.064;2022-11-15T06:43:12;96103.59;;;7.29;nan
34328;BME280;20588;48.840;10.064;2022-11-15T06:45:38;96105.94;;;7.30;nan
34328;BME280;20588;48.840;10.064;2022-11-15T06:48:04;96102.38;;;7.31;nan
34328;BME280;20588;48.840;10.064;2022-11-15T06:50:30;96101.41;;;7.32;nan
34328;BME280;20588;48.840;10.064;2022-11-15T06:53:01;96094.50;;;7.33;nan
34328;BME280;20588;48.840;10.064;2022-11-15T06:55:28;96098.84;;;7.39;nan
34328;BME280;20588;48.840;10.064;2022-11-15T06:57:54;96102.38;;;7.45;nan
34328;BME280;20588;48.840;10.064;2022-11-15T07:00:21;96098.00;;;7.52;nan
34328;BME280;20588;48.840;10.064;2022-11-15T07:02:48;96097.00;;;7.59;nan
34328;BME280;20588;48.840;10.064;2022-11-15T07:05:15;96100.31;;;7.73;nan
34328;BME280;20588;48.840;10.064;2022-11-15T07:07:41;96102.06;;;7.79;nan
34328;BME280;20588;48.840;10.064;2022-11-15T07:10:08;96105.63;;;7.84;nan
34328;BME280;20588;48.840;10.064;2022-11-15T07:12:34;96102.44;;;7.89;nan
34328;BME280;20588;48.840;10.064;2022-11-15T07:15:00;96099.28;;;7.93;nan
34328;BME280;20588;48.840;10.064;2022-11-15T07:17:26;96095.88;;;7.99;nan
34328;BME280;20588;48.840;10.064;2022-11-15T07:19:52;96096.03;;;8.04;nan
34328;BME280;20588;48.840;10.064;2022-11-15T07:22:18;96089.94;;;8.12;nan
34328;BME280;20588;48.840;10.064;2022-11-15T07:24:44;96099.16;;;8.19;nan
34328;BME280;20588;48.840;10.064;2022-11-15T07:27:10;96092.66;;;8.23;nan
34328;BME280;20588;48.840;10.064;2022-11-15T07:29:36;96094.81;;;8.26;nan
34328;BME280;20588;48.840;10.064;2022-11-15T07:32:03;96100.09;;;8.31;nan
34328;BME280;20588;48.840;10.064;2022-11-15T07:34:29;96091.72;;;8.42;nan
34328;BME280;20588;48.840;10.064;2022-11-15T07:36:55;96094.78;;;8.57;nan
34328;BME280;20588;48.840;10.064;2022-11-15T07:39:21;96090.72;;;8.74;nan
34328;BME280;20588;48.840;10.064;2022-11-15T07:41:47;96083.69;;;8.94;nan
34328;BME280;20588;48.840;10.064;2022-11-15T07:44:14;96088.69;;;9.07;nan
34328;BME280;20588;48.840;10.064;2022-11-15T07:46:40;96083.03;;;9.24;nan
34328;BME280;20588;48.840;10.064;2022-11-15T07:49:06;96082.31;;;9.35;nan
34328;BME280;20588;48.840;10.064;2022-11-15T07:51:32;96079.91;;;9.58;nan
34328;BME280;20588;48.840;10.064;2022-11-15T07:53:58;96075.63;;;9.70;nan
34328;BME280;20588;48.840;10.064;2022-11-15T07:56:24;96075.53;;;10.12;nan
34328;BME280;20588;48.840;10.064;2022-11-15T07:58:50;96078.34;;;10.52;nan
34328;BME280;20588;48.840;10.064;2022-11-15T08:01:16;96076.72;;;10.69;nan
34328;BME280;20588;48.840;10.064;2022-11-15T08:03:42;96072.28;;;10.99;nan
34328;BME280;20588;48.840;10.064;2022-11-15T08:06:08;96062.28;;;11.72;nan
34328;BME280;20588;48.840;10.064;2022-11-15T08:08:34;96063.25;;;13.00;nan
34328;BME280;20588;48.840;10.064;2022-11-15T08:11:01;96054.44;;;14.41;nan
34328;BME280;20588;48.840;10.064;2022-11-15T08:13:27;96055.94;;;15.37;nan
34328;BME280;20588;48.840;10.064;2022-11-15T08:15:58;96048.72;;;16.01;nan
34328;BME280;20588;48.840;10.064;2022-11-15T08:18:25;96041.75;;;16.16;nan
34328;BME280;20588;48.840;10.064;2022-11-15T08:20:51;96037.31;;;16.07;nan
34328;BME280;20588;48.840;10.064;2022-11-15T08:23:17;96031.56;;;15.90;nan
34328;BME280;20588;48.840;10.064;2022-11-15T08:25:43;96028.78;;;16.21;nan
34328;BME280;20588;48.840;10.064;2022-11-15T08:28:10;96014.53;;;17.14;nan
34328;BME280;20588;48.840;10.064;2022-11-15T08:30:42;96006.06;;;18.93;nan
34328;BME280;20588;48.840;10.064;2022-11-15T08:33:12;95999.28;;;20.66;nan
34328;BME280;20588;48.840;10.064;2022-11-15T08:35:39;95992.00;;;22.96;nan
34328;BME280;20588;48.840;10.064;2022-11-15T08:40:31;95860.38;;;25.32;nan
34328;BME280;20588;48.840;10.064;2022-11-15T08:42:57;96004.19;;;26.90;nan
34328;BME280;20588;48.840;10.064;2022-11-15T08:45:24;96002.03;;;27.61;nan
34328;BME280;20588;48.840;10.064;2022-11-15T08:47:50;95996.09;;;28.79;nan
34328;BME280;20588;48.840;10.064;2022-11-15T08:50:16;95991.84;;;29.64;nan
34328;BME280;20588;48.840;10.064;2022-11-15T08:52:42;95987.28;;;30.50;nan
34328;BME280;20588;48.840;10.064;2022-11-15T08:55:09;95993.72;;;30.49;nan
34328;BME280;20588;48.840;10.064;2022-11-15T08:57:35;95997.00;;;31.22;nan
34328;BME280;20588;48.840;10.064;2022-11-15T09:00:01;95991.13;;;32.03;nan
34328;BME280;20588;48.840;10.064;2022-11-15T09:02:27;95991.53;;;32.64;nan
34328;BME280;20588;48.840;10.064;2022-11-15T09:04:53;95988.94;;;33.04;nan
34328;BME280;20588;48.840;10.064;2022-11-15T09:07:19;95984.81;;;33.11;nan
34328;BME280;20588;48.840;10.064;2022-11-15T09:09:45;95971.47;;;33.11;nan
34328;BME280;20588;48.840;10.064;2022-11-15T09:12:11;95969.03;;;33.35;nan
34328;BME280;20588;48.840;10.064;2022-11-15T09:14:38;95967.56;;;32.68;nan
34328;BME280;20588;48.840;10.064;2022-11-15T09:17:07;95964.97;;;32.38;nan
34328;BME280;20588;48.840;10.064;2022-11-15T09:19:33;95960.34;;;32.68;nan
34328;BME280;20588;48.840;10.064;2022-11-15T09:21:59;95965.44;;;32.47;nan
34328;BME280;20588;48.840;10.064;2022-11-15T09:24:25;95960.66;;;32.96;nan
34328;BME280;20588;48.840;10.064;2022-11-15T09:26:52;95950.00;;;33.40;nan
34328;BME280;20588;48.840;10.064;2022-11-15T09:29:18;95955.19;;;33.70;nan
34328;BME280;20588;48.840;10.064;2022-11-15T09:31:44;95945.34;;;31.94;nan
34328;BME280;20588;48.840;10.064;2022-11-15T09:34:11;95942.69;;;31.00;nan
34328;BME280;20588;48.840;10.064;2022-11-15T09:36:37;95944.72;;;32.67;nan
34328;BME280;20588;48.840;10.064;2022-11-15T09:39:03;95944.13;;;31.66;nan
34328;BME280;20588;48.840;10.064;2022-11-15T09:45:09;95941.63;;;31.05;nan
34328;BME280;20588;48.840;10.064;2022-11-15T09:47:55;95954.44;;;29.07;nan
34328;BME280;20588;48.840;10.064;2022-11-15T09:50:44;95950.00;;;26.84;nan
34328;BME280;20588;48.840;10.064;2022-11-15T09:53:17;95944.19;;;26.05;nan
34328;BME280;20588;48.840;10.064;2022-11-15T10:00:59;95936.69;;;23.80;nan
34328;BME280;20588;48.840;10.064;2022-11-15T10:03:34;95936.72;;;24.39;nan
34328;BME280;20588;48.840;10.064;2022-11-15T10:06:04;95927.88;;;24.61;nan
34328;BME280;20588;48.840;10.064;2022-11-15T10:11:17;95919.16;;;24.86;nan
34328;BME280;20588;48.840;10.064;2022-11-15T10:13:46;95918.19;;;26.15;nan
34328;BME280;20588;48.840;10.064;2022-11-15T10:16:43;95916.13;;;26.86;nan
34328;BME280;20588;48.840;10.064;2022-11-15T10:22:38;95909.28;;;23.64;nan
34328;BME280;20588;48.840;10.064;2022-11-15T10:25:18;95905.75;;;22.81;nan
34328;BME280;20588;48.840;10.064;2022-11-15T10:30:21;95897.78;;;22.64;nan
34328;BME280;20588;48.840;10.064;2022-11-15T10:32:48;95891.78;;;22.20;nan
34328;BME280;20588;48.840;10.064;2022-11-15T10:35:24;95890.53;;;21.19;nan
34328;BME280;20588;48.840;10.064;2022-11-15T10:37:50;95883.63;;;21.50;nan
34328;BME280;20588;48.840;10.064;2022-11-15T10:40:22;95879.78;;;21.48;nan
34328;BME280;20588;48.840;10.064;2022-11-15T10:43:04;95872.63;;;21.26;nan
34328;BME280;20588;48.840;10.064;2022-11-15T10:45:32;95869.53;;;21.10;nan
34328;BME280;20588;48.840;10.064;2022-11-15T10:48:19;95869.03;;;20.95;nan
34328;BME280;20588;48.840;10.064;2022-11-15T10:50:47;95864.81;;;20.67;nan
34328;BME280;20588;48.840;10.064;2022-11-15T10:53:41;95862.72;;;20.69;nan
34328;BME280;20588;48.840;10.064;2022-11-15T10:56:13;95867.09;;;20.28;nan
34328;BME280;20588;48.840;10.064;2022-11-15T10:58:42;95863.81;;;19.85;nan
34328;BME280;20588;48.840;10.064;2022-11-15T11:01:17;95876.63;;;19.63;nan
34328;BME280;20588;48.840;10.064;2022-11-15T11:03:45;95872.88;;;19.32;nan
34328;BME280;20588;48.840;10.064;2022-11-15T11:06:24;95870.28;;;19.08;nan
34328;BME280;20588;48.840;10.064;2022-11-15T11:09:04;95862.50;;;19.03;nan
34328;BME280;20588;48.840;10.064;2022-11-15T11:11:46;95863.81;;;19.01;nan
34328;BME280;20588;48.840;10.064;2022-11-15T11:14:23;95869.19;;;18.67;nan
34328;BME280;20588;48.840;10.064;2022-11-15T11:16:55;95854.59;;;18.33;nan
34328;BME280;20588;48.840;10.064;2022-11-15T11:33:24;95858.00;;;18.33;nan
34328;BME280;20588;48.840;10.064;2022-11-15T11:39:05;95847.56;;;19.69;nan
34328;BME280;20588;48.840;10.064;2022-11-15T11:41:51;95849.47;;;19.83;nan
34328;BME280;20588;48.840;10.064;2022-11-15T11:44:37;95851.53;;;19.86;nan
34328;BME280;20588;48.840;10.064;2022-11-15T11:47:12;95838.81;;;19.79;nan
34328;BME280;20588;48.840;10.064;2022-11-15T11:50:01;95835.81;;;19.53;nan
34328;BME280;20588;48.840;10.064;2022-11-15T11:52:41;95836.84;;;19.52;nan
34328;BME280;20588;48.840;10.064;2022-11-15T11:55:16;95841.09;;;19.48;nan
34328;BME280;20588;48.840;10.064;2022-11-15T11:58:04;95830.88;;;18.86;nan
34328;BME280;20588;48.840;10.064;2022-11-15T12:00:35;95828.97;;;18.73;nan
34328;BME280;20588;48.840;10.064;2022-11-15T12:05:56;95825.69;;;18.63;nan
34328;BME280;20588;48.840;10.064;2022-11-15T12:08:31;95832.56;;;18.77;nan
34328;BME280;20588;48.840;10.064;2022-11-15T12:11:18;95831.66;;;18.63;nan
34328;BME280;20588;48.840;10.064;2022-11-15T12:13:48;95831.69;;;18.87;nan
34328;BME280;20588;48.840;10.064;2022-11-15T12:16:39;95833.16;;;18.93;nan
34328;BME280;20588;48.840;10.064;2022-11-15T12:19:04;95829.78;;;18.92;nan
34328;BME280;20588;48.840;10.064;2022-11-15T12:22:02;95826.28;;;19.02;nan
34328;BME280;20588;48.840;10.064;2022-11-15T12:24:39;95828.00;;;19.11;nan
34328;BME280;20588;48.840;10.064;2022-11-15T12:27:20;95821.78;;;19.26;nan
34328;BME280;20588;48.840;10.064;2022-11-15T12:29:54;95822.13;;;19.43;nan
34328;BME280;20588;48.840;10.064;2022-11-15T12:32:39;95817.81;;;19.52;nan
34328;BME280;20588;48.840;10.064;2022-11-15T12:35:37;95819.69;;;19.46;nan
34328;BME280;20588;48.840;10.064;2022-11-15T12:38:09;95816.41;;;19.41;nan
34328;BME280;20588;48.840;10.064;2022-11-15T12:40:38;95812.09;;;19.31;nan
34328;BME280;20588;48.840;10.064;2022-11-15T12:45:42;95805.44;;;19.20;nan
34328;BME280;20588;48.840;10.064;2022-11-15T12:50:54;95790.84;;;19.38;nan
34328;BME280;20588;48.840;10.064;2022-11-15T12:58:54;95793.53;;;19.51;nan
34328;BME280;20588;48.840;10.064;2022-11-15T13:04:24;95781.69;;;19.40;nan
34328;BME280;20588;48.840;10.064;2022-11-15T13:07:01;95778.94;;;19.32;nan
34328;BME280;20588;48.840;10.064;2022-11-15T13:11:56;95784.63;;;19.15;nan
34328;BME280;20588;48.840;10.064;2022-11-15T13:14:41;95775.97;;;18.96;nan
34328;BME280;20588;48.840;10.064;2022-11-15T13:19:48;95766.13;;;18.75;nan
34328;BME280;20588;48.840;10.064;2022-11-15T13:22:18;95762.38;;;18.57;nan
34328;BME280;20588;48.840;10.064;2022-11-15T13:25:03;95768.41;;;18.29;nan
34328;BME280;20588;48.840;10.064;2022-11-15T13:27:31;95766.25;;;18.13;nan
34328;BME280;20588;48.840;10.064;2022-11-15T13:29:57;95768.66;;;18.04;nan
34328;BME280;20588;48.840;10.064;2022-11-15T13:32:24;95771.81;;;18.01;nan
34328;BME280;20588;48.840;10.064;2022-11-15T13:34:50;95768.03;;;17.88;nan
34328;BME280;20588;48.840;10.064;2022-11-15T13:39:48;95772.13;;;17.66;nan
34328;BME280;20588;48.840;10.064;2022-11-15T13:42:18;95764.38;;;17.56;nan
34328;BME280;20588;48.840;10.064;2022-11-15T13:45:02;95760.56;;;17.43;nan
34328;BME280;20588;48.840;10.064;2022-11-15T13:47:30;95766.81;;;17.37;nan
34328;BME280;20588;48.840;10.064;2022-11-15T13:49:58;95761.41;;;17.34;nan
34328;BME280;20588;48.840;10.064;2022-11-15T13:52:30;95759.06;;;17.32;nan
34328;BME280;20588;48.840;10.064;2022-11-15T13:55:02;95751.53;;;17.31;nan
34328;BME280;20588;48.840;10.064;2022-11-15T13:57:43;95751.03;;;17.24;nan
34328;BME280;20588;48.840;10.064;2022-11-15T14:02:56;95741.78;;;17.08;nan
34328;BME280;20588;48.840;10.064;2022-11-15T14:05:24;95730.13;;;17.00;nan
34328;BME280;20588;48.840;10.064;2022-11-15T14:10:45;95727.69;;;16.70;nan
34328;BME280;20588;48.840;10.064;2022-11-15T14:13:28;95724.38;;;16.60;nan
34328;BME280;20588;48.840;10.064;2022-11-15T14:15:54;95725.72;;;16.52;nan
34328;BME280;20588;48.840;10.064;2022-11-15T14:21:11;95705.97;;;16.36;nan
34328;BME280;20588;48.840;10.064;2022-11-15T14:23:38;95704.75;;;16.23;nan
34328;BME280;20588;48.840;10.064;2022-11-15T14:26:04;95700.09;;;16.15;nan
34328;BME280;20588;48.840;10.064;2022-11-15T14:28:33;95698.78;;;16.13;nan
34328;BME280;20588;48.840;10.064;2022-11-15T14:31:06;95701.94;;;16.05;nan
34328;BME280;20588;48.840;10.064;2022-11-15T14:33:39;95691.84;;;15.93;nan
34328;BME280;20588;48.840;10.064;2022-11-15T14:36:19;95688.75;;;15.91;nan
34328;BME280;20588;48.840;10.064;2022-11-15T14:38:47;95689.00;;;15.85;nan
34328;BME280;20588;48.840;10.064;2022-11-15T14:41:20;95682.81;;;15.81;nan
34328;BME280;20588;48.840;10.064;2022-11-15T14:43:47;95686.19;;;15.71;nan
34328;BME280;20588;48.840;10.064;2022-11-15T14:46:13;95681.25;;;15.65;nan
34328;BME280;20588;48.840;10.064;2022-11-15T14:48:39;95677.63;;;15.76;nan
34328;BME280;20588;48.840;10.064;2022-11-15T14:51:14;95677.91;;;15.54;nan
34328;BME280;20588;48.840;10.064;2022-11-15T14:53:42;95682.28;;;15.29;nan
34328;BME280;20588;48.840;10.064;2022-11-15T14:56:08;95683.63;;;15.41;nan
34328;BME280;20588;48.840;10.064;2022-11-15T14:58:34;95676.84;;;15.20;nan
34328;BME280;20588;48.840;10.064;2022-11-15T15:01:02;95671.94;;;15.14;nan
34328;BME280;20588;48.840;10.064;2022-11-15T15:03:34;95668.03;;;15.16;nan
34328;BME280;20588;48.840;10.064;2022-11-15T15:06:00;95667.00;;;14.97;nan
34328;BME280;20588;48.840;10.064;2022-11-15T15:08:26;95656.34;;;14.69;nan